Detailed System and Site Information

System Data Health
Measure Timestamp Ago Health
Web Server Live 15:41:10, 21st April 2014 0 s health
Last live-data upload from local system (nw3) 15:41:06, 21st April 2014 4 s health
Last upload of secondary data 15:00:25, 21st April 2014 41 mins health
Latest Webcam upload 15:41:08, 21st April 2014 2 s health
Last upload of 24hr data log 15:39:08, 21st April 2014 2 mins health
Last full data process 15:40:02, 21st April 2014 68 s health
Last data downtime (>15 mins) 17:01:02, 2nd April 2014 19 days
Local System and Site Information
Measure Value
WD Version & Build # 10.37R - 40
WD Start Time 19:31 31/03/14
WD Data Count 622589
WD Memory Use 80,828 K
--- ---
Windows Uptime 20 Days 19 Hours 30 Minutes 54 Seconds
Free System Memory 2473 MB (Max: 4GB)
--- ---
Station Altitude 57 m (187 ft)
Station Latitude 51.556
Station Longitude -0.154
Machine Room Conditions
Measure Value
Temperature 21.2 °C
Temperature Trend +0.6 °C /hr
Relative Humidity 46%
Dew Point 9.1 °C
--- ---
Tmin Today 17.4 °C at 06:30
Tmax Today 22.0 °C at 09:27
Hmin Today 45% at 09:00
Hmax Today 51% at 06:01
Tmin Yesterday 16.3 °C at 06:39
Tmax Yesterday 22.4 °C at 21:31

Site owner and administrator: Ben Lee-Rodgers (2010 - present)

Last 10hrs Temp/Hum for Secondary Sensor and Indoors

Extra Sensors/Indoor

Other

Raw METAR from EGLL (Heathrow)

EGLL 211420Z 30006KT 9999 FEW042 17/11 Q1005
Decode Instructions
Source

WD Screenshot

not available